Time;durP1;ratioP1;P1;durP2;ratioP2;P2;SDS_P1;SDS_P2;PMS_P1;PMS_P2;Temp;Humidity;BMP_temperature;BMP_pressure;BME280_temperature;BME280_humidity;BME280_pressure;Samples;Min_cycle;Max_cycle;Signal;HPM_P1;HPM_P2
2021/04/25 00:00:01;;;;;;;14.32;9.50;;;13.50;90.30;;;;;;4882318;29;20113;-72
2021/04/25 00:02:26;;;;;;;15.60;9.65;;;13.50;90.20;;;;;;4898698;29;20509;-72
2021/04/25 00:04:52;;;;;;;15.40;9.13;;;13.50;90.20;;;;;;4881989;29;20028;-72
2021/04/25 00:07:18;;;;;;;17.08;9.98;;;13.40;90.40;;;;;;4898976;29;20028;-72
2021/04/25 00:09:44;;;;;;;17.90;10.30;;;13.40;90.50;;;;;;4898863;29;20040;-72
2021/04/25 00:12:10;;;;;;;22.17;9.98;;;13.30;90.60;;;;;;4882048;29;20032;-72
2021/04/25 00:14:35;;;;;;;17.63;9.98;;;13.20;90.70;;;;;;4898683;29;20034;-72
2021/04/25 00:17:01;;;;;;;17.92;9.43;;;13.20;90.80;;;;;;4898667;29;20036;-72
2021/04/25 00:19:27;;;;;;;13.35;9.65;;;13.20;90.80;;;;;;4898752;29;20033;-72
2021/04/25 00:21:53;;;;;;;20.15;10.38;;;13.10;90.80;;;;;;4898757;29;20077;-72
2021/04/25 00:24:19;;;;;;;14.50;9.23;;;13.20;90.90;;;;;;4898440;29;20166;-72
2021/04/25 00:26:45;;;;;;;26.27;10.27;;;13.20;91.30;;;;;;4898743;29;20098;-72
2021/04/25 00:29:11;;;;;;;21.27;11.23;;;13.10;91.10;;;;;;4898482;29;20048;-72
2021/04/25 00:31:38;;;;;;;16.48;9.68;;;13.00;91.30;;;;;;4898355;29;20028;-72
2021/04/25 00:34:04;;;;;;;18.05;9.90;;;13.10;91.30;;;;;;4881605;29;20029;-72
2021/04/25 00:36:29;;;;;;;17.42;9.85;;;13.10;91.30;;;;;;4898277;29;20033;-72
2021/04/25 00:38:55;;;;;;;21.17;10.20;;;13.20;91.10;;;;;;4898345;29;20045;-72
2021/04/25 00:41:21;;;;;;;16.10;10.20;;;13.10;91.00;;;;;;4898414;29;20052;-72
2021/04/25 00:43:47;;;;;;;12.68;10.05;;;13.10;91.20;;;;;;4881457;29;20080;-72
2021/04/25 00:46:12;;;;;;;17.35;10.77;;;13.10;91.20;;;;;;4897687;29;20021;-72
2021/04/25 00:48:38;;;;;;;17.05;10.63;;;13.10;91.20;;;;;;4915640;29;20060;-72
2021/04/25 00:51:10;;;;;;;18.30;10.45;;;13.10;91.00;;;;;;4916949;29;20016;-72
2021/04/25 00:53:36;;;;;;;15.95;8.98;;;13.20;91.00;;;;;;4917082;29;20057;-72
2021/04/25 00:56:03;;;;;;;19.38;9.80;;;13.10;91.10;;;;;;4916730;29;20055;-72
2021/04/25 00:58:29;;;;;;;15.57;9.57;;;13.10;91.20;;;;;;4899985;29;20036;-72
2021/04/25 01:00:55;;;;;;;16.27;9.90;;;13.10;91.20;;;;;;4916720;29;20024;-72
2021/04/25 01:03:23;;;;;;;16.70;9.57;;;13.10;91.20;;;;;;4916616;29;20111;-72
2021/04/25 01:05:52;;;;;;;14.07;9.85;;;13.10;91.10;;;;;;4916771;29;20020;-72
2021/04/25 01:08:18;;;;;;;18.00;9.98;;;13.10;91.00;;;;;;4916786;29;20111;-72
2021/04/25 01:10:44;;;;;;;15.57;10.32;;;13.20;90.90;;;;;;4916625;29;20152;-72
2021/04/25 01:13:09;;;;;;;18.60;10.77;;;13.10;91.00;;;;;;4899510;29;20377;-72
2021/04/25 01:15:35;;;;;;;18.02;10.05;;;13.10;91.10;;;;;;4916633;29;20035;-72
2021/04/25 01:18:01;;;;;;;14.25;8.88;;;13.00;91.10;;;;;;4916393;29;20028;-72
2021/04/25 01:20:26;;;;;;;14.68;9.93;;;13.10;91.10;;;;;;4916341;29;20126;-73
2021/04/25 01:22:52;;;;;;;18.52;9.55;;;13.00;91.10;;;;;;4899551;29;20024;-72
2021/04/25 01:25:21;;;;;;;16.10;9.40;;;13.00;91.00;;;;;;4916294;29;20471;-72
2021/04/25 01:27:47;;;;;;;17.77;9.35;;;13.00;90.90;;;;;;4899138;29;20493;-72
2021/04/25 01:30:15;;;;;;;15.25;9.48;;;13.00;90.90;;;;;;4918391;29;20028;-72
2021/04/25 01:32:42;;;;;;;18.85;8.90;;;13.00;91.00;;;;;;4916302;29;20027;-72
2021/04/25 01:35:11;;;;;;;16.58;9.13;;;13.00;91.00;;;;;;4899206;29;20412;-72
2021/04/25 01:37:36;;;;;;;14.52;9.30;;;13.00;91.10;;;;;;4916026;29;20488;-72
2021/04/25 01:40:07;;;;;;;16.55;9.55;;;13.00;91.10;;;;;;4916197;29;20056;-72
2021/04/25 01:42:32;;;;;;;20.35;10.07;;;13.00;91.10;;;;;;4915934;29;20028;-72
2021/04/25 01:44:58;;;;;;;18.25;9.85;;;13.00;91.20;;;;;;4916719;29;20527;-72
2021/04/25 01:47:24;;;;;;;17.77;9.80;;;13.00;91.60;;;;;;4916261;29;20052;-72
2021/04/25 01:49:50;;;;;;;16.48;9.13;;;13.00;91.20;;;;;;4899642;29;20020;-72
2021/04/25 01:52:15;;;;;;;17.80;10.15;;;13.00;91.10;;;;;;4899592;29;20016;-72
2021/04/25 01:54:41;;;;;;;16.50;9.32;;;13.00;91.10;;;;;;4916457;29;20039;-72
2021/04/25 01:57:07;;;;;;;14.95;9.07;;;12.90;91.10;;;;;;4916397;29;20031;-72
2021/04/25 01:59:33;;;;;;;14.25;9.57;;;12.90;91.00;;;;;;4915978;29;20028;-73
2021/04/25 02:01:59;;;;;;;21.40;9.88;;;12.90;91.00;;;;;;4898963;29;20118;-72
2021/04/25 02:04:25;;;;;;;16.13;9.70;;;12.90;91.00;;;;;;4916237;29;20099;-72
2021/04/25 02:06:51;;;;;;;14.80;8.70;;;12.90;91.10;;;;;;4916345;29;20107;-72
2021/04/25 02:09:17;;;;;;;16.77;9.15;;;12.90;91.10;;;;;;4915696;29;20020;-72
2021/04/25 02:11:42;;;;;;;19.80;9.05;;;12.90;91.10;;;;;;4899126;29;20077;-72
2021/04/25 02:14:08;;;;;;;14.07;8.52;;;12.90;91.20;;;;;;4915673;29;20016;-72
2021/04/25 02:16:34;;;;;;;15.43;8.77;;;12.90;91.20;;;;;;4915635;29;20377;-72
2021/04/25 02:19:00;;;;;;;16.33;9.20;;;12.80;91.10;;;;;;4915764;29;20370;-72
2021/04/25 02:21:26;;;;;;;15.00;9.07;;;12.80;91.20;;;;;;4898359;29;20032;-72
2021/04/25 02:23:54;;;;;;;14.23;8.77;;;12.80;91.20;;;;;;4915459;29;20399;-72
2021/04/25 02:26:21;;;;;;;17.25;8.13;;;12.80;91.40;;;;;;4915514;29;20028;-72
2021/04/25 02:28:47;;;;;;;13.35;8.50;;;12.80;91.20;;;;;;4898691;29;20028;-72
2021/04/25 02:31:12;;;;;;;12.25;8.40;;;12.80;91.20;;;;;;4898314;29;20046;-72
2021/04/25 02:33:38;;;;;;;15.75;8.93;;;12.80;91.20;;;;;;4915435;29;20051;-72
2021/04/25 02:36:05;;;;;;;14.55;7.95;;;12.70;91.10;;;;;;4898512;29;20042;-72
2021/04/25 02:38:31;;;;;;;16.27;9.00;;;12.70;91.10;;;;;;4915426;29;20115;-73
2021/04/25 02:40:57;;;;;;;14.02;8.07;;;12.70;91.20;;;;;;4915345;29;20483;-72
2021/04/25 02:43:23;;;;;;;14.48;8.20;;;12.70;91.10;;;;;;4915462;29;20020;-72
2021/04/25 02:45:48;;;;;;;14.18;9.05;;;12.70;91.10;;;;;;4915242;29;20096;-72
2021/04/25 02:48:15;;;;;;;12.82;7.25;;;12.70;91.10;;;;;;4915192;29;20449;-72
2021/04/25 02:50:42;;;;;;;17.40;8.10;;;12.70;91.10;;;;;;4915309;29;20080;-72
2021/04/25 02:53:08;;;;;;;14.30;8.05;;;12.70;90.90;;;;;;4915131;29;20408;-72
2021/04/25 02:55:36;;;;;;;13.85;7.93;;;12.70;91.00;;;;;;4915235;29;20054;-72
2021/04/25 02:58:02;;;;;;;13.68;8.07;;;12.60;91.00;;;;;;4898580;29;20020;-72
2021/04/25 03:00:29;;;;;;;12.30;7.53;;;12.60;91.10;;;;;;4915462;29;20043;-73
2021/04/25 03:02:56;;;;;;;11.70;7.50;;;12.60;91.00;;;;;;4915152;29;20105;-72
2021/04/25 03:05:22;;;;;;;14.85;8.05;;;12.60;91.10;;;;;;4915587;29;20025;-72
2021/04/25 03:07:48;;;;;;;13.77;7.72;;;12.60;91.00;;;;;;4898654;29;20020;-72
2021/04/25 03:10:16;;;;;;;14.65;8.32;;;12.50;90.90;;;;;;4917699;29;20031;-73
2021/04/25 03:12:42;;;;;;;14.30;7.53;;;12.50;91.00;;;;;;4901954;29;20024;-72
2021/04/25 03:15:11;;;;;;;14.40;7.50;;;12.50;90.80;;;;;;4918760;29;20055;-72
2021/04/25 03:17:37;;;;;;;11.30;6.93;;;12.50;90.90;;;;;;4918916;29;20016;-72
2021/04/25 03:20:11;;;;;;;13.13;7.03;;;12.50;91.30;;;;;;4901658;29;20032;-73
2021/04/25 03:22:37;;;;;;;10.45;7.45;;;12.50;91.00;;;;;;4901548;29;20122;-72
2021/04/25 03:25:06;;;;;;;10.93;7.53;;;12.50;91.10;;;;;;4901552;29;20477;-72
2021/04/25 03:27:32;;;;;;;15.15;6.68;;;12.40;91.00;;;;;;4901502;29;20396;-72
2021/04/25 03:29:57;;;;;;;12.90;7.43;;;12.40;91.10;;;;;;4918828;29;20034;-72
2021/04/25 03:32:23;;;;;;;12.32;7.07;;;12.40;91.00;;;;;;4918331;29;20030;-72
2021/04/25 03:34:49;;;;;;;13.60;7.25;;;12.40;91.00;;;;;;4901323;29;20571;-72
2021/04/25 03:37:15;;;;;;;15.93;7.93;;;12.40;90.80;;;;;;4920659;29;20376;-72
2021/04/25 03:39:40;;;;;;;13.88;7.50;;;12.40;90.90;;;;;;4901351;29;20067;-71
2021/04/25 03:42:07;;;;;;;17.50;8.07;;;12.40;90.90;;;;;;4918394;29;20092;-72
2021/04/25 03:44:33;;;;;;;15.95;7.35;;;12.40;90.90;;;;;;4918296;29;20032;-72
2021/04/25 03:46:59;;;;;;;17.77;7.55;;;12.40;91.00;;;;;;4918050;29;20515;-72
2021/04/25 03:49:25;;;;;;;12.55;7.07;;;12.40;91.00;;;;;;4900904;29;20024;-72
2021/04/25 03:51:52;;;;;;;12.20;7.43;;;12.40;91.00;;;;;;4918307;29;20024;-72
2021/04/25 03:54:19;;;;;;;13.70;8.25;;;12.40;91.00;;;;;;4900841;29;20456;-72
2021/04/25 03:56:45;;;;;;;13.73;7.80;;;12.40;90.90;;;;;;4917961;29;20079;-72
2021/04/25 03:59:11;;;;;;;13.45;8.27;;;12.40;91.00;;;;;;4918073;29;20024;-72
2021/04/25 04:01:37;;;;;;;12.65;7.88;;;12.30;91.10;;;;;;4917874;29;20039;-72
2021/04/25 04:04:03;;;;;;;14.35;7.53;;;12.30;91.00;;;;;;4917695;29;20043;-72
2021/04/25 04:06:29;;;;;;;12.35;7.55;;;12.30;91.00;;;;;;4917958;29;20020;-72
2021/04/25 04:08:55;;;;;;;13.52;7.28;;;12.40;91.00;;;;;;4917813;29;20495;-72
2021/04/25 04:11:21;;;;;;;14.60;8.05;;;12.40;91.10;;;;;;4900700;29;20044;-72
2021/04/25 04:13:46;;;;;;;15.43;8.73;;;12.40;90.90;;;;;;4917789;29;20433;-72
2021/04/25 04:16:13;;;;;;;14.32;7.55;;;12.40;91.00;;;;;;4900543;29;20055;-72
2021/04/25 04:18:38;;;;;;;13.27;8.07;;;12.40;91.10;;;;;;4917454;29;20088;-72
2021/04/25 04:21:05;;;;;;;20.00;9.43;;;12.40;91.20;;;;;;4916854;29;20066;-72
2021/04/25 04:23:30;;;;;;;18.65;8.05;;;12.30;91.50;;;;;;4900454;29;20028;-72
2021/04/25 04:25:56;;;;;;;12.80;8.30;;;12.20;91.70;;;;;;4917419;29;20378;-72
2021/04/25 04:28:22;;;;;;;21.02;9.30;;;12.20;91.90;;;;;;4900556;29;20483;-72
2021/04/25 04:30:47;;;;;;;14.38;7.88;;;12.20;92.10;;;;;;4917332;29;20052;-72
2021/04/25 04:33:13;;;;;;;13.93;8.88;;;12.10;92.00;;;;;;4900154;29;20020;-72
2021/04/25 04:35:39;;;;;;;15.45;8.98;;;12.20;92.20;;;;;;4917419;29;20030;-72
2021/04/25 04:38:05;;;;;;;14.98;8.50;;;12.20;92.20;;;;;;4917128;29;20028;-72
2021/04/25 04:40:31;;;;;;;16.58;8.85;;;12.20;92.10;;;;;;4900248;29;20031;-72
2021/04/25 04:42:56;;;;;;;16.00;9.25;;;12.20;92.10;;;;;;4917322;29;20106;-72
2021/04/25 04:45:22;;;;;;;12.60;8.80;;;12.30;92.20;;;;;;4900082;29;20016;-72
2021/04/25 04:47:48;;;;;;;16.25;8.63;;;12.30;92.10;;;;;;4899977;29;20143;-72
2021/04/25 04:50:19;;;;;;;15.80;8.50;;;12.30;92.10;;;;;;4917157;29;20024;-72
2021/04/25 04:52:46;;;;;;;18.85;9.45;;;12.30;92.20;;;;;;4900670;29;20028;-72
2021/04/25 04:55:14;;;;;;;15.00;9.35;;;12.40;92.10;;;;;;4916649;29;20020;-72
2021/04/25 04:57:40;;;;;;;18.30;9.38;;;12.40;92.20;;;;;;4936679;29;20152;-72
2021/04/25 05:00:07;;;;;;;15.55;9.98;;;12.40;92.20;;;;;;4936497;29;20031;-72
2021/04/25 05:02:32;;;;;;;20.33;10.45;;;12.40;92.30;;;;;;4935989;29;20027;-73
2021/04/25 05:04:58;;;;;;;16.50;9.60;;;12.40;92.50;;;;;;4919103;29;20046;-72
2021/04/25 05:07:24;;;;;;;18.25;9.90;;;12.40;92.50;;;;;;4929798;29;20024;-72
2021/04/25 05:09:50;;;;;;;17.58;9.82;;;12.50;92.60;;;;;;4930462;29;20024;-72
2021/04/25 05:12:16;;;;;;;18.55;10.30;;;12.50;92.60;;;;;;4920930;29;20032;-72
2021/04/25 05:14:42;;;;;;;18.77;10.18;;;12.50;92.70;;;;;;4917362;29;20032;-72
2021/04/25 05:17:08;;;;;;;19.40;10.10;;;12.50;92.80;;;;;;4917564;29;20020;-72
2021/04/25 05:19:34;;;;;;;16.90;10.13;;;12.50;92.80;;;;;;4917374;29;20566;-72
2021/04/25 05:21:59;;;;;;;17.83;10.98;;;12.60;92.80;;;;;;4916822;29;20029;-73
2021/04/25 05:24:25;;;;;;;14.82;9.77;;;12.60;92.70;;;;;;4899361;29;20032;-72
2021/04/25 05:26:51;;;;;;;16.95;10.40;;;12.70;92.80;;;;;;4916313;29;20381;-72
2021/04/25 05:29:17;;;;;;;21.95;11.77;;;12.70;93.00;;;;;;4916378;29;20063;-72
2021/04/25 05:31:44;;;;;;;19.85;10.75;;;12.70;93.10;;;;;;4899306;29;20050;-72
2021/04/25 05:34:11;;;;;;;17.77;10.38;;;12.80;93.10;;;;;;4899358;29;20038;-72
2021/04/25 05:36:36;;;;;;;21.42;11.05;;;12.80;93.10;;;;;;4897919;29;20037;-72
2021/04/25 05:39:04;;;;;;;16.10;10.68;;;12.90;93.20;;;;;;4900686;29;20036;-72
2021/04/25 05:41:29;;;;;;;19.77;10.93;;;13.00;93.10;;;;;;4898698;29;20496;-73
2021/04/25 05:43:55;;;;;;;15.70;10.52;;;13.00;93.20;;;;;;4915764;29;20041;-72
2021/04/25 05:46:21;;;;;;;17.10;11.07;;;13.00;93.20;;;;;;4915894;29;20024;-72
2021/04/25 05:48:48;;;;;;;27.42;13.40;;;13.10;93.20;;;;;;4898638;29;20501;-72
2021/04/25 05:51:14;;;;;;;22.85;11.98;;;13.20;93.20;;;;;;4916721;29;20121;-72
2021/04/25 05:53:40;;;;;;;20.73;11.55;;;13.20;93.20;;;;;;4916615;29;20036;-72
2021/04/25 05:56:06;;;;;;;23.50;12.18;;;13.30;93.10;;;;;;4917110;29;20033;-72
2021/04/25 05:58:32;;;;;;;21.80;12.38;;;13.30;93.10;;;;;;4899747;29;20511;-72
2021/04/25 06:00:57;;;;;;;18.15;11.02;;;13.40;93.20;;;;;;4899707;29;20028;-72
2021/04/25 06:03:23;;;;;;;17.38;10.88;;;13.50;93.20;;;;;;4898978;29;20095;-72
2021/04/25 06:05:49;;;;;;;17.42;10.05;;;13.70;93.20;;;;;;4914118;29;20088;-73
2021/04/25 06:08:15;;;;;;;20.05;11.43;;;13.80;93.30;;;;;;4915115;29;20032;-72
2021/04/25 06:10:40;;;;;;;21.17;10.88;;;13.80;92.90;;;;;;4916356;29;20107;-73
2021/04/25 06:13:06;;;;;;;20.15;10.95;;;13.80;93.00;;;;;;4916281;29;20028;-72
2021/04/25 06:15:32;;;;;;;21.00;11.40;;;13.80;93.10;;;;;;4916340;29;20031;-73
2021/04/25 06:18:02;;;;;;;19.15;12.18;;;13.90;93.20;;;;;;4916388;29;20032;-73
2021/04/25 06:20:28;;;;;;;20.27;11.50;;;14.00;93.10;;;;;;4916378;29;20028;-72
2021/04/25 06:22:54;;;;;;;24.63;12.40;;;14.00;93.20;;;;;;4916462;29;20020;-73
2021/04/25 06:25:20;;;;;;;19.52;10.90;;;14.10;93.20;;;;;;4916668;29;20050;-72
2021/04/25 06:27:45;;;;;;;19.92;11.20;;;14.20;93.10;;;;;;4899609;29;20080;-73
2021/04/25 06:30:16;;;;;;;17.50;11.38;;;14.20;92.90;;;;;;4916645;29;20103;-73
2021/04/25 06:32:43;;;;;;;17.85;11.10;;;14.30;93.10;;;;;;4899953;29;20194;-73
2021/04/25 06:35:11;;;;;;;18.25;10.82;;;14.30;93.10;;;;;;4915647;29;20032;-73
2021/04/25 06:37:37;;;;;;;25.15;12.35;;;14.40;93.10;;;;;;4914217;29;20046;-73
2021/04/25 06:40:03;;;;;;;18.38;10.90;;;14.40;93.30;;;;;;4897002;29;20559;-79
2021/04/25 06:42:31;;;;;;;17.17;11.35;;;14.50;93.20;;;;;;4896442;29;20119;-79
2021/04/25 06:44:57;;;;;;;17.83;11.52;;;14.50;93.10;;;;;;4913706;29;20110;-79
2021/04/25 06:47:22;;;;;;;18.90;10.95;;;14.60;93.10;;;;;;4897051;29;20604;-79
2021/04/25 06:49:48;;;;;;;16.80;10.35;;;14.70;93.90;;;;;;4914411;29;20028;-79
2021/04/25 06:52:14;;;;;;;15.40;8.25;;;14.80;94.70;;;;;;4915067;29;20500;-78
2021/04/25 06:54:40;;;;;;;15.63;9.40;;;14.90;94.60;;;;;;4915184;29;20488;-79
2021/04/25 06:57:06;;;;;;;14.27;10.25;;;15.00;94.30;;;;;;4915099;29;20477;-79
2021/04/25 06:59:32;;;;;;;13.52;9.48;;;15.00;94.30;;;;;;4915054;29;20064;-79
2021/04/25 07:01:58;;;;;;;15.55;8.90;;;15.10;94.60;;;;;;4915157;29;20493;-79
2021/04/25 07:04:24;;;;;;;11.25;7.70;;;15.20;94.50;;;;;;4897838;29;20035;-79
2021/04/25 07:06:50;;;;;;;17.42;7.60;;;15.30;94.80;;;;;;4915223;29;20125;-79
2021/04/25 07:09:16;;;;;;;11.00;7.15;;;15.30;93.90;;;;;;4915274;29;20020;-79
2021/04/25 07:11:42;;;;;;;10.55;6.95;;;15.40;93.40;;;;;;4915899;29;20151;-79
2021/04/25 07:14:08;;;;;;;10.55;7.05;;;15.40;92.80;;;;;;4915044;29;20115;-79
2021/04/25 07:16:34;;;;;;;12.73;6.50;;;15.50;92.70;;;;;;4898398;29;20032;-79
2021/04/25 07:18:59;;;;;;;10.57;6.05;;;15.50;92.20;;;;;;4914877;29;20111;-79
2021/04/25 07:21:25;;;;;;;9.43;6.10;;;15.50;91.30;;;;;;4915026;29;20083;-79
2021/04/25 07:23:51;;;;;;;12.23;5.38;;;15.60;90.30;;;;;;4914808;29;20144;-79
2021/04/25 07:26:17;;;;;;;7.57;5.18;;;15.60;89.20;;;;;;4915527;29;20400;-79
2021/04/25 07:28:42;;;;;;;11.52;5.50;;;15.60;89.50;;;;;;4916153;29;20441;-80
2021/04/25 07:31:09;;;;;;;9.02;5.28;;;15.70;87.90;;;;;;4915845;29;20047;-79
2021/04/25 07:33:35;;;;;;;8.25;5.60;;;15.70;86.30;;;;;;4914815;29;20091;-79
2021/04/25 07:36:03;;;;;;;8.23;5.07;;;15.70;86.50;;;;;;4914667;29;20036;-79
2021/04/25 07:38:29;;;;;;;9.35;6.50;;;15.70;87.00;;;;;;4914860;29;20048;-79
2021/04/25 07:40:55;;;;;;;10.45;6.22;;;15.70;87.90;;;;;;4914551;29;20107;-79
2021/04/25 07:43:20;;;;;;;12.23;6.20;;;15.70;88.30;;;;;;4916814;29;20028;-79
2021/04/25 07:45:46;;;;;;;13.43;6.10;;;15.70;88.20;;;;;;4897700;29;20039;-79
2021/04/25 07:48:12;;;;;;;8.77;5.97;;;15.80;89.10;;;;;;4914684;29;20053;-80
2021/04/25 07:50:38;;;;;;;12.77;7.25;;;15.80;90.30;;;;;;4914654;29;20032;-79
2021/04/25 07:53:05;;;;;;;9.18;6.30;;;16.00;90.30;;;;;;4914446;29;20116;-79
2021/04/25 07:55:31;;;;;;;11.40;6.97;;;16.10;89.00;;;;;;4897621;29;20481;-79
2021/04/25 07:57:56;;;;;;;10.85;6.63;;;16.10;90.70;;;;;;4917752;29;20112;-80
2021/04/25 08:00:22;;;;;;;11.20;6.57;;;16.30;90.50;;;;;;4918013;29;20024;-79
2021/04/25 08:02:48;;;;;;;11.90;7.32;;;16.40;88.80;;;;;;4917529;29;20032;-79
2021/04/25 08:05:14;;;;;;;11.02;6.80;;;16.40;89.80;;;;;;4901018;29;20076;-79
2021/04/25 08:07:40;;;;;;;13.50;7.57;;;16.40;87.80;;;;;;4900940;29;20396;-79
2021/04/25 08:10:08;;;;;;;15.00;7.03;;;16.50;88.50;;;;;;4917501;29;20055;-79
2021/04/25 08:12:34;;;;;;;15.25;7.00;;;16.60;86.50;;;;;;4900890;29;20032;-80
2021/04/25 08:14:59;;;;;;;15.40;8.50;;;16.60;85.20;;;;;;4917125;29;20143;-79
2021/04/25 08:17:25;;;;;;;13.73;7.32;;;16.70;85.80;;;;;;4917840;29;20111;-79
2021/04/25 08:19:51;;;;;;;13.40;7.28;;;16.80;86.10;;;;;;4917816;29;20064;-79
2021/04/25 08:22:17;;;;;;;11.60;6.95;;;17.00;86.20;;;;;;4918463;29;20028;-79
2021/04/25 08:24:43;;;;;;;14.30;7.80;;;17.00;84.10;;;;;;4917850;29;20071;-79
2021/04/25 08:27:08;;;;;;;12.60;7.65;;;17.00;84.50;;;;;;4918302;29;20111;-79
2021/04/25 08:29:34;;;;;;;12.27;7.40;;;17.20;83.50;;;;;;4918319;29;20031;-79
2021/04/25 08:32:00;;;;;;;12.43;7.55;;;17.30;81.50;;;;;;4918226;29;20028;-79
2021/04/25 08:34:26;;;;;;;12.02;8.02;;;17.40;84.80;;;;;;4918392;29;20028;-80
2021/04/25 08:36:51;;;;;;;14.00;7.57;;;17.30;82.30;;;;;;4901214;29;20043;-79
2021/04/25 08:39:18;;;;;;;14.52;8.13;;;17.30;82.20;;;;;;4901088;29;20032;-79
2021/04/25 08:41:47;;;;;;;15.25;7.85;;;17.40;82.80;;;;;;4900888;29;20035;-79
2021/04/25 08:44:18;;;;;;;16.80;7.82;;;17.40;80.40;;;;;;4923140;29;20061;-79
2021/04/25 08:46:46;;;;;;;13.70;6.82;;;17.50;80.60;;;;;;4925048;29;20056;-79
2021/04/25 08:49:16;;;;;;;14.27;7.40;;;17.60;78.10;;;;;;4926887;29;20024;-79
2021/04/25 08:51:44;;;;;;;12.68;6.82;;;17.60;77.10;;;;;;4925773;29;20039;-74
2021/04/25 08:54:13;;;;;;;10.23;6.25;;;17.60;77.30;;;;;;4922380;29;20043;-74
2021/04/25 08:56:39;;;;;;;11.68;6.90;;;17.80;77.30;;;;;;4920902;29;20036;-74
2021/04/25 08:59:06;;;;;;;11.90;6.63;;;17.90;74.80;;;;;;4923607;29;20039;-74
2021/04/25 09:01:32;;;;;;;13.30;7.60;;;18.00;75.80;;;;;;4907595;29;20083;-74
2021/04/25 09:03:57;;;;;;;17.27;8.65;;;17.90;74.60;;;;;;4930204;29;20024;-74
2021/04/25 09:06:23;;;;;;;14.20;7.18;;;17.90;78.20;;;;;;4935693;29;20039;-74
2021/04/25 09:08:52;;;;;;;12.32;7.60;;;18.00;78.70;;;;;;4918300;29;20087;-74
2021/04/25 09:11:30;;;;;;;19.95;6.90;;;18.00;76.70;;;;;;4936728;29;20028;-74
2021/04/25 09:14:15;;;;;;;15.65;6.85;;;18.10;70.90;;;;;;4936141;29;20042;-74
2021/04/25 09:16:44;;;;;;;16.90;6.30;;;18.20;66.90;;;;;;4936630;29;20115;-74
2021/04/25 09:19:11;;;;;;;11.25;6.00;;;18.10;68.10;;;;;;4931617;29;20495;-74
2021/04/25 09:21:58;;;;;;;9.18;6.40;;;18.20;68.30;;;;;;4917655;29;20028;-74
2021/04/25 09:24:29;;;;;;;18.95;5.90;;;18.10;69.70;;;;;;4917465;29;20027;-74
2021/04/25 09:26:56;;;;;;;15.35;6.30;;;18.10;70.00;;;;;;4917611;29;20024;-74
2021/04/25 09:29:27;;;;;;;15.07;7.15;;;18.30;69.20;;;;;;4917376;29;20080;-74
2021/04/25 09:31:54;;;;;;;13.32;6.93;;;18.40;66.60;;;;;;4917328;29;20020;-74
2021/04/25 09:34:28;;;;;;;11.32;6.90;;;18.50;67.60;;;;;;4917601;29;20076;-79
2021/04/25 09:36:55;;;;;;;11.45;6.55;;;18.40;65.50;;;;;;4915604;29;20035;-74
2021/04/25 09:39:22;;;;;;;12.30;5.68;;;18.50;68.10;;;;;;4916941;29;20060;-74
2021/04/25 09:41:49;;;;;;;13.73;5.95;;;18.60;64.20;;;;;;4917152;29;20028;-80
2021/04/25 09:44:37;;;;;;;12.27;6.75;;;18.60;64.30;;;;;;4917723;29;20069;-78
2021/04/25 09:47:05;;;;;;;11.70;6.70;;;18.90;63.70;;;;;;4900466;29;20048;-79
2021/04/25 09:49:49;;;;;;;17.90;7.07;;;18.90;62.60;;;;;;4917598;29;20151;-74
2021/04/25 09:59:00;;;;;;;14.82;7.00;;;18.80;63.60;;;;;;4883515;29;20024;-74
2021/04/25 10:01:33;;;;;;;17.17;6.60;;;18.80;62.60;;;;;;4917553;29;20037;-74
2021/04/25 10:04:00;;;;;;;15.27;6.88;;;18.80;62.60;;;;;;4917356;29;20043;-74
2021/04/25 10:06:29;;;;;;;10.60;6.47;;;19.00;66.00;;;;;;4917425;29;20024;-74
2021/04/25 10:08:55;;;;;;;12.70;7.35;;;19.00;63.70;;;;;;4917231;29;20035;-79
2021/04/25 10:11:22;;;;;;;12.95;7.05;;;19.00;62.30;;;;;;4917138;29;20032;-79
2021/04/25 10:13:49;;;;;;;15.88;6.57;;;19.00;64.10;;;;;;4917169;29;20032;-80
2021/04/25 10:16:21;;;;;;;13.63;6.78;;;18.90;63.20;;;;;;4917237;29;20020;-79
2021/04/25 10:18:48;;;;;;;16.50;7.13;;;18.90;62.10;;;;;;4916866;29;20480;-79
2021/04/25 10:21:14;;;;;;;9.82;6.47;;;18.90;62.90;;;;;;4900081;29;20028;-79
2021/04/25 10:23:40;;;;;;;14.93;5.80;;;19.20;66.50;;;;;;4916981;29;20051;-79
2021/04/25 10:26:17;;;;;;;9.82;5.85;;;19.40;63.30;;;;;;4900008;29;20024;-79
2021/04/25 10:28:59;;;;;;;12.35;6.43;;;19.50;62.50;;;;;;4917148;29;20024;-79
2021/04/25 10:31:36;;;;;;;14.30;7.70;;;19.40;60.00;;;;;;4917147;29;20051;-80
2021/04/25 10:34:18;;;;;;;18.70;7.32;;;19.40;60.90;;;;;;4899965;29;20032;-79
2021/04/25 10:36:54;;;;;;;16.67;8.57;;;19.40;62.10;;;;;;4899938;29;20032;-74
2021/04/25 10:39:49;;;;;;;20.02;9.10;;;19.40;60.70;;;;;;4917089;29;20024;-80
2021/04/25 10:42:21;;;;;;;19.42;8.77;;;19.40;59.30;;;;;;4914863;29;20040;-80
2021/04/25 10:45:07;;;;;;;;;;;19.40;61.30;;;;;;4917006;29;20103;-80
2021/04/25 10:47:34;;;;;;;12.77;7.60;;;19.50;62.60;;;;;;4899392;29;20319;-80
2021/04/25 10:50:13;;;;;;;19.15;9.30;;;19.60;59.70;;;;;;4916440;29;20485;-79
2021/04/25 10:52:40;;;;;;;14.82;7.35;;;19.70;59.30;;;;;;4916552;29;20480;-80
2021/04/25 10:55:12;;;;;;;14.98;7.68;;;19.80;59.50;;;;;;4916516;29;20159;-80
2021/04/25 10:58:07;;;;;;;13.63;7.05;;;20.00;61.20;;;;;;4916559;29;20032;-80
2021/04/25 11:00:44;;;;;;;15.38;8.27;;;20.10;59.60;;;;;;4916460;29;20078;-79
2021/04/25 11:03:11;;;;;;;16.15;8.40;;;20.10;60.00;;;;;;4899366;29;20118;-79
2021/04/25 11:05:45;;;;;;;17.38;9.27;;;20.10;60.00;;;;;;4899418;29;20024;-79
2021/04/25 11:08:18;;;;;;;13.50;8.43;;;20.10;58.90;;;;;;4899436;29;20120;-80
2021/04/25 11:10:45;;;;;;;;;;;20.20;59.40;;;;;;4899770;29;20470;-79
2021/04/25 11:13:46;;;;;;;15.20;8.02;;;20.30;59.60;;;;;;4903270;29;20287;-79
2021/04/25 11:16:19;;;;;;;15.52;7.40;;;20.30;58.50;;;;;;4907138;29;20115;-79
2021/04/25 11:19:00;;;;;;;19.38;7.93;;;20.40;61.30;;;;;;4906213;29;20111;-79
2021/04/25 11:21:29;;;;;;;14.70;8.68;;;20.50;60.70;;;;;;4898321;29;21070;-79
2021/04/25 11:23:58;;;;;;;16.20;7.43;;;20.50;58.50;;;;;;4916757;29;20075;-79
2021/04/25 11:26:35;;;;;;;16.10;8.35;;;20.50;58.70;;;;;;4927771;29;20496;-79
2021/04/25 11:29:07;;;;;;;14.85;8.35;;;20.60;58.30;;;;;;4932246;29;20027;-79
2021/04/25 11:31:48;;;;;;;11.85;7.00;;;20.70;59.30;;;;;;4936232;29;20031;-79
2021/04/25 11:34:26;;;;;;;15.00;8.18;;;20.80;58.70;;;;;;4923307;29;20433;-79
2021/04/25 11:37:05;;;;;;;18.60;8.23;;;20.90;58.80;;;;;;4922878;29;20036;-79
2021/04/25 11:39:48;;;;;;;13.13;7.43;;;21.00;58.00;;;;;;4923777;29;20031;-79
2021/04/25 11:42:28;;;;;;;15.00;7.35;;;21.20;60.00;;;;;;4920408;29;20043;-80
2021/04/25 11:44:56;;;;;;;14.90;7.40;;;21.30;57.70;;;;;;4909166;29;20032;-79
2021/04/25 11:47:24;;;;;;;11.57;7.20;;;21.40;58.10;;;;;;4924936;29;20404;-79
2021/04/25 11:49:54;;;;;;;16.73;8.70;;;21.40;56.60;;;;;;4928100;29;20432;-79
2021/04/25 11:52:23;;;;;;;16.80;8.40;;;21.60;56.60;;;;;;4926093;29;20032;-79
2021/04/25 11:55:04;;;;;;;10.85;7.50;;;21.70;56.40;;;;;;4932393;29;20028;-79
2021/04/25 11:57:33;;;;;;;15.60;7.88;;;21.80;55.20;;;;;;4888662;29;20495;-79
2021/04/25 12:00:16;;;;;;;11.60;6.97;;;21.80;56.20;;;;;;4907835;29;20440;-79
2021/04/25 12:02:55;;;;;;;13.85;7.20;;;22.00;57.90;;;;;;4923196;29;20031;-79
2021/04/25 12:05:29;;;;;;;16.67;7.45;;;22.20;56.80;;;;;;4908358;29;20031;-79
2021/04/25 12:08:14;;;;;;;11.70;6.75;;;22.30;55.90;;;;;;4927401;29;20028;-79
2021/04/25 12:10:50;;;;;;;11.32;7.13;;;22.30;56.40;;;;;;4920582;29;20051;-79
2021/04/25 12:13:17;;;;;;;13.15;7.68;;;22.40;54.40;;;;;;4919311;29;20028;-79
2021/04/25 12:15:50;;;;;;;12.65;7.68;;;22.40;53.50;;;;;;4924220;29;20552;-79
2021/04/25 12:18:23;;;;;;;16.67;8.23;;;22.30;53.90;;;;;;4925294;29;20036;-78
2021/04/25 12:20:55;;;;;;;14.60;8.05;;;22.50;55.90;;;;;;4920937;29;20102;-79
2021/04/25 12:23:35;;;;;;;14.90;8.40;;;22.60;56.40;;;;;;4909294;29;20542;-78
2021/04/25 12:26:08;;;;;;;15.60;7.78;;;22.80;53.20;;;;;;4924775;29;20047;-79
2021/04/25 12:28:59;;;;;;;14.60;7.38;;;22.80;52.70;;;;;;4916032;29;20035;-79
2021/04/25 12:31:26;;;;;;;12.25;7.10;;;22.80;53.60;;;;;;4923338;29;20458;-79
2021/04/25 12:33:55;;;;;;;12.98;7.28;;;22.90;53.10;;;;;;4916028;29;20489;-78
2021/04/25 12:36:23;;;;;;;11.52;7.28;;;22.90;51.90;;;;;;4916887;29;20024;-79
2021/04/25 12:39:01;;;;;;;13.48;7.35;;;22.90;52.20;;;;;;4920034;29;20027;-79
2021/04/25 12:41:47;;;;;;;12.57;6.70;;;22.90;50.60;;;;;;4912649;29;20032;-78
2021/04/25 12:44:15;;;;;;;10.93;5.68;;;23.10;51.50;;;;;;4917239;29;20024;-79
2021/04/25 12:46:58;;;;;;;8.88;6.28;;;23.30;53.40;;;;;;4917943;29;20059;-79